Time;durP1;ratioP1;P1;durP2;ratioP2;P2;SDS_P1;SDS_P2;PMS_P1;PMS_P2;Temp;Humidity;BMP_temperature;BMP_pressure;BME280_temperature;BME280_humidity;BME280_pressure;Samples;Min_cycle;Max_cycle;Signal;HPM_P1;HPM_P2
2023/09/18 00:00:21;;;;;;;;;5.67;5.00;;;;;21.60;73.09;100178.09;5035514;28;58964;-68
2023/09/18 00:02:47;;;;;;;;;2.67;2.67;;;;;21.46;72.89;100173.94;5031375;28;45566;-68
2023/09/18 00:05:15;;;;;;;;;4.00;3.00;;;;;21.51;73.30;100191.13;5017229;28;46704;-68
2023/09/18 00:07:44;;;;;;;;;2.00;2.00;;;;;21.48;72.92;100197.00;5025509;28;45395;-67
2023/09/18 00:10:13;;;;;;;;;3.50;3.50;;;;;21.42;72.87;100195.19;5025401;28;45299;-68
2023/09/18 00:12:38;;;;;;;;;4.00;3.00;;;;;21.48;73.03;100188.88;5024946;28;45547;-67
2023/09/18 00:15:05;;;;;;;;;4.25;2.25;;;;;21.22;73.00;100154.03;5017120;28;46909;-68
2023/09/18 00:17:30;;;;;;;;;4.50;3.00;;;;;21.44;73.02;100179.59;5017976;28;45637;-69
2023/09/18 00:19:56;;;;;;;;;1.67;1.67;;;;;21.55;72.70;100195.03;4999651;28;45335;-69
2023/09/18 00:22:21;;;;;;;;;2.00;2.00;;;;;21.52;72.26;100184.66;5019110;28;45557;-68
2023/09/18 00:24:47;;;;;;;;;2.00;2.00;;;;;21.50;72.48;100178.66;5036738;28;46886;-68
2023/09/18 00:27:13;;;;;;;;;1.67;1.67;;;;;21.19;71.99;100139.09;5019948;28;45358;-68
2023/09/18 00:29:39;;;;;;;;;1.00;1.00;;;;;21.43;71.89;100182.53;5017112;28;45198;-68
2023/09/18 00:32:05;;;;;;;;;2.67;2.00;;;;;21.53;71.99;100194.44;5017877;28;45280;-68
2023/09/18 00:34:31;;;;;;;;;2.00;1.00;;;;;21.52;72.09;100195.47;5024181;28;47268;-68
2023/09/18 00:36:58;;;;;;;;;1.00;1.00;;;;;21.52;72.21;100198.19;5016724;28;45228;-68
2023/09/18 00:39:24;;;;;;;;;3.00;3.00;;;;;21.46;71.68;100180.19;5025231;28;45334;-68
2023/09/18 00:41:53;;;;;;;;;1.00;1.00;;;;;21.50;71.28;100189.47;5016949;28;45644;-68
2023/09/18 00:44:19;;;;;;;;;1.00;1.00;;;;;21.43;71.32;100191.47;5016583;28;46727;-68
2023/09/18 00:46:44;;;;;;;;;1.50;1.50;;;;;21.39;71.75;100192.94;5016785;28;45286;-68
2023/09/18 00:49:10;;;;;;;;;2.00;2.00;;;;;21.18;71.78;100159.06;5016786;28;45448;-68
2023/09/18 00:51:35;;;;;;;;;1.00;1.00;;;;;21.35;71.99;100189.06;5017048;28;45427;-69
2023/09/18 00:54:01;;;;;;;;;3.00;1.33;;;;;21.33;71.75;100190.34;5016353;28;46130;-68
2023/09/18 00:56:26;;;;;;;;;3.00;3.00;;;;;21.24;72.00;100176.31;5017800;28;45558;-68
2023/09/18 00:58:52;;;;;;;;;3.00;3.00;;;;;21.22;71.49;100175.66;5036420;28;45511;-67
2023/09/18 01:01:22;;;;;;;;;3.00;3.00;;;;;21.18;72.02;100196.09;5020178;28;45371;-68
2023/09/18 01:03:49;;;;;;;;;1.67;1.67;;;;;21.13;71.94;100198.66;5016679;28;46425;-69
2023/09/18 01:06:15;;;;;;;;;1.00;1.00;;;;;20.97;72.11;100181.16;5016485;28;45355;-69
2023/09/18 01:08:40;;;;;;;;;1.00;1.00;;;;;21.06;71.83;100206.03;5019683;28;45474;-68
2023/09/18 01:11:14;;;;;;;;;3.00;1.00;;;;;21.07;71.61;100210.38;5022606;28;45234;-69
2023/09/18 01:13:54;;;;;;;;;1.00;1.00;;;;;20.89;71.88;100193.13;5019127;28;47383;-68
2023/09/18 01:16:36;;;;;;;;;3.50;1.00;;;;;20.98;71.82;100209.00;5028296;28;45501;-68
2023/09/18 01:19:03;;;;;;;;;2.75;2.00;;;;;20.96;71.86;100193.84;5016748;28;46004;-68
2023/09/18 01:21:28;;;;;;;;;1.75;1.75;;;;;20.99;71.35;100192.56;5017795;28;45647;-69
2023/09/18 01:23:54;;;;;;;;;0.00;0.00;;;;;20.60;71.38;100129.00;5016544;28;47501;-67
2023/09/18 01:26:19;;;;;;;;;1.67;1.00;;;;;20.98;71.34;100182.00;5014700;28;45513;-67
2023/09/18 01:28:44;;;;;;;;;0.33;0.33;;;;;20.94;71.25;100190.56;5033180;28;45329;-67
2023/09/18 01:31:10;;;;;;;;;1.00;1.00;;;;;20.96;71.27;100193.84;5017298;28;45526;-70
2023/09/18 01:33:38;;;;;;;;;0.75;0.75;;;;;21.01;71.24;100190.47;5014889;28;48711;-69
2023/09/18 01:36:07;;;;;;;;;2.75;1.00;;;;;21.01;71.20;100186.94;5035094;28;45281;-68
2023/09/18 01:38:33;;;;;;;;;1.00;1.00;;;;;21.05;70.98;100186.28;5028187;28;45261;-67
2023/09/18 01:41:01;;;;;;;;;2.00;1.00;;;;;20.96;71.25;100177.63;5025708;28;45360;-68
2023/09/18 01:43:26;;;;;;;;;1.00;1.00;;;;;21.02;70.93;100191.28;5022092;28;45725;-68
2023/09/18 01:45:52;;;;;;;;;0.75;0.25;;;;;20.67;70.77;100129.78;5019214;28;45481;-68
2023/09/18 01:48:18;;;;;;;;;1.00;1.00;;;;;21.01;71.39;100195.06;5020073;28;45511;-68
2023/09/18 01:50:43;;;;;;;;;1.00;1.00;;;;;20.90;71.12;100162.34;5020087;28;45460;-67
2023/09/18 01:53:09;;;;;;;;;2.00;1.00;;;;;21.05;70.99;100190.88;5018780;28;55276;-68
2023/09/18 01:55:34;;;;;;;;;1.25;1.00;;;;;21.03;71.01;100177.59;5027480;28;45388;-68
2023/09/18 01:57:59;;;;;;;;;1.25;1.00;;;;;21.08;70.72;100191.22;5036894;28;45539;-68
2023/09/18 02:00:25;;;;;;;;;3.50;2.00;;;;;21.06;70.85;100187.94;5029642;28;45362;-68
2023/09/18 02:02:50;;;;;;;;;1.00;1.00;;;;;20.86;71.13;100158.44;5023406;28;45941;-68
2023/09/18 02:05:15;;;;;;;;;1.25;1.25;;;;;21.07;70.69;100186.06;5019095;28;45497;-69
2023/09/18 02:07:41;;;;;;;;;1.75;1.75;;;;;21.05;70.91;100182.75;5023331;28;45477;-68
2023/09/18 02:10:07;;;;;;;;;1.00;1.00;;;;;21.09;70.68;100190.19;5030212;28;45443;-69
2023/09/18 02:12:32;;;;;;;;;1.00;1.00;;;;;20.93;70.74;100172.69;5019418;28;47382;-67
2023/09/18 02:14:58;;;;;;;;;2.00;1.00;;;;;21.01;70.82;100206.69;5025868;28;45488;-68
2023/09/18 02:17:24;;;;;;;;;1.75;1.00;;;;;21.00;70.84;100202.34;5022442;28;46819;-68
2023/09/18 02:19:49;;;;;;;;;1.00;1.00;;;;;20.97;71.00;100205.50;5033973;28;45472;-69
2023/09/18 02:22:14;;;;;;;;;1.00;1.00;;;;;20.95;71.19;100194.91;5012424;28;47289;-73
2023/09/18 02:24:40;;;;;;;;;0.50;0.50;;;;;20.96;71.19;100204.66;5027100;28;56705;-68
2023/09/18 02:27:06;;;;;;;;;1.50;1.00;;;;;20.83;71.49;100207.53;5033589;28;45351;-68
2023/09/18 02:29:31;;;;;;;;;1.00;1.00;;;;;20.86;71.40;100208.94;5029229;28;45300;-68
2023/09/18 02:31:56;;;;;;;;;2.75;2.75;;;;;20.85;71.62;100197.31;5031467;28;45734;-68
2023/09/18 02:34:22;;;;;;;;;1.00;1.00;;;;;20.85;71.50;100197.31;5038082;28;45379;-68
2023/09/18 02:36:47;;;;;;;;;2.75;1.50;;;;;20.51;71.56;100157.38;5030224;28;45458;-69
2023/09/18 02:39:13;;;;;;;;;1.00;1.00;;;;;20.79;71.70;100209.00;5024873;28;45408;-69
2023/09/18 02:41:38;;;;;;;;;1.25;1.25;;;;;20.80;71.88;100221.47;5018771;28;46251;-68
2023/09/18 02:44:04;;;;;;;;;0.75;0.00;;;;;20.84;71.84;100221.88;5022624;28;45325;-68
2023/09/18 02:46:29;;;;;;;;;1.50;1.00;;;;;20.81;71.55;100200.66;5029752;28;45387;-68
2023/09/18 02:48:55;;;;;;;;;1.00;1.00;;;;;20.54;71.34;100149.63;5020281;28;45429;-69
2023/09/18 02:51:20;;;;;;;;;1.00;1.00;;;;;20.89;71.43;100212.03;5018193;28;46717;-68
2023/09/18 02:53:45;;;;;;;;;1.25;1.25;;;;;20.86;71.45;100203.56;5018527;28;45521;-77
2023/09/18 02:56:11;;;;;;;;;2.00;2.00;;;;;20.78;71.53;100201.13;5029244;28;45254;-67
2023/09/18 02:58:36;;;;;;;;;2.00;2.00;;;;;20.81;71.74;100206.06;5038383;28;45396;-68
2023/09/18 03:01:03;;;;;;;;;2.00;2.00;;;;;20.87;71.66;100206.03;5018630;28;46628;-68
2023/09/18 03:03:29;;;;;;;;;2.50;1.00;;;;;20.92;71.37;100208.03;5018054;28;46298;-68
2023/09/18 03:06:04;;;;;;;;;1.00;1.00;;;;;20.95;71.14;100203.00;5018429;28;45352;-69
2023/09/18 03:08:29;;;;;;;;;2.00;2.00;;;;;20.56;71.39;100135.91;5019680;28;45429;-69
2023/09/18 03:10:55;;;;;;;;;2.00;2.00;;;;;20.89;71.35;100192.28;5029324;28;46111;-69
2023/09/18 03:13:21;;;;;;;;;2.25;2.25;;;;;20.82;71.36;100176.16;5025072;28;45487;-68
2023/09/18 03:15:49;;;;;;;;;1.50;1.50;;;;;20.81;71.75;100182.59;5020058;28;45316;-67
2023/09/18 03:18:15;;;;;;;;;1.75;1.75;;;;;20.79;71.53;100181.97;5032902;28;45432;-68
2023/09/18 03:20:40;;;;;;;;;2.00;2.00;;;;;20.81;71.58;100179.88;5021284;28;46514;-68
2023/09/18 03:23:05;;;;;;;;;1.00;1.00;;;;;20.79;71.79;100187.38;5024112;28;45305;-69
2023/09/18 03:25:31;;;;;;;;;3.25;2.00;;;;;20.67;71.63;100174.88;5031597;28;45309;-68
2023/09/18 03:27:57;;;;;;;;;3.00;3.00;;;;;20.72;71.76;100180.41;5031398;28;45492;-68
2023/09/18 03:30:24;;;;;;;;;3.50;2.75;;;;;20.59;72.09;100165.16;5032202;28;47448;-68
2023/09/18 03:32:50;;;;;;;;;3.50;2.25;;;;;20.68;71.93;100185.44;5026006;28;45464;-68
2023/09/18 03:35:17;;;;;;;;;1.75;1.75;;;;;20.65;71.90;100184.03;5024533;28;45491;-67
2023/09/18 03:37:43;;;;;;;;;3.25;2.00;;;;;20.63;71.84;100178.03;5024416;28;45349;-68
2023/09/18 03:40:09;;;;;;;;;2.50;2.50;;;;;20.43;71.76;100139.59;5035739;28;45602;-68
2023/09/18 03:42:34;;;;;;;;;1.00;1.00;;;;;20.60;71.91;100161.41;5031664;28;45400;-69
2023/09/18 03:45:00;;;;;;;;;3.00;2.00;;;;;20.74;71.74;100184.53;5021432;28;45568;-68
2023/09/18 03:47:25;;;;;;;;;2.00;2.00;;;;;20.69;71.51;100162.78;5021917;28;45234;-67
2023/09/18 03:49:51;;;;;;;;;3.75;2.00;;;;;20.71;71.40;100157.97;5031140;28;51427;-68
2023/09/18 03:52:16;;;;;;;;;4.00;3.00;;;;;20.49;71.19;100121.66;5024414;28;45466;-68
2023/09/18 03:54:41;;;;;;;;;5.75;3.00;;;;;20.82;71.15;100165.34;5010466;28;45239;-68
2023/09/18 03:57:07;;;;;;;;;4.00;4.00;;;;;20.80;70.86;100162.03;5023031;28;53114;-68
2023/09/18 03:59:32;;;;;;;;;2.50;1.25;;;;;20.80;71.13;100178.22;5017131;28;45633;-68
2023/09/18 04:01:57;;;;;;;;;2.50;2.50;;;;;20.17;71.08;100070.44;5017439;28;45799;-68
2023/09/18 04:04:22;;;;;;;;;3.50;2.25;;;;;20.68;71.10;100158.44;5028497;28;57547;-69
2023/09/18 04:06:49;;;;;;;;;2.00;2.00;;;;;20.77;71.44;100167.06;5026671;28;50251;-68
2023/09/18 04:09:15;;;;;;;;;2.75;2.75;;;;;20.76;71.32;100171.63;5024993;28;46317;-68
2023/09/18 04:11:40;;;;;;;;;2.00;2.00;;;;;20.76;71.18;100158.13;5031913;28;45412;-69
2023/09/18 04:14:05;;;;;;;;;2.00;2.00;;;;;20.73;71.30;100169.38;5029220;28;45854;-68
2023/09/18 04:16:31;;;;;;;;;2.25;2.25;;;;;20.68;71.41;100161.13;5027703;28;45576;-68
2023/09/18 04:18:56;;;;;;;;;4.50;2.50;;;;;20.66;71.46;100168.63;5029428;28;47256;-68
2023/09/18 04:21:23;;;;;;;;;1.00;1.00;;;;;20.53;71.84;100156.09;5016925;28;45402;-68
2023/09/18 04:23:55;;;;;;;;;3.00;2.00;;;;;20.39;71.89;100132.09;5017458;28;45470;-68
2023/09/18 04:26:21;;;;;;;;;2.75;2.75;;;;;20.70;71.74;100169.84;5024903;28;45619;-68
2023/09/18 04:28:46;;;;;;;;;3.00;2.00;;;;;20.58;71.65;100142.72;5021777;28;47314;-69
2023/09/18 04:31:12;;;;;;;;;1.00;1.00;;;;;20.70;71.70;100161.72;5020675;28;45475;-68
2023/09/18 04:33:37;;;;;;;;;2.50;2.50;;;;;20.73;71.58;100169.38;5002204;28;45384;-68
2023/09/18 04:36:02;;;;;;;;;2.00;2.00;;;;;20.68;71.86;100160.31;5020702;28;45456;-69
2023/09/18 04:38:28;;;;;;;;;3.67;2.67;;;;;20.74;71.46;100168.34;5033892;28;45325;-68
2023/09/18 04:41:01;;;;;;;;;3.33;2.00;;;;;20.55;71.68;100136.97;5025013;28;45570;-67
2023/09/18 04:43:29;;;;;;;;;3.75;3.00;;;;;20.72;72.05;100170.44;5033400;28;45395;-68
2023/09/18 04:45:54;;;;;;;;;4.50;4.00;;;;;20.61;71.84;100150.38;5031301;28;45483;-69
2023/09/18 04:48:19;;;;;;;;;3.67;3.33;;;;;20.40;71.63;100110.28;5017192;28;45740;-69
2023/09/18 04:50:45;;;;;;;;;3.00;3.00;;;;;20.79;71.76;100168.47;5019748;28;49918;-68
2023/09/18 04:53:10;;;;;;;;;2.67;2.00;;;;;20.81;72.08;100174.47;5025277;28;45471;-68
2023/09/18 04:55:35;;;;;;;;;3.00;3.00;;;;;20.86;71.55;100171.94;5031655;28;45471;-68
2023/09/18 04:58:00;;;;;;;;;1.00;1.00;;;;;20.76;71.80;100160.81;5017791;28;46509;-68
2023/09/18 05:00:26;;;;;;;;;2.00;2.00;;;;;20.86;71.59;100169.25;5035126;28;45332;-68
2023/09/18 05:02:52;;;;;;;;;4.00;3.00;;;;;20.76;71.61;100166.22;5027293;28;46495;-69
2023/09/18 05:05:18;;;;;;;;;2.25;2.25;;;;;20.83;71.54;100175.09;5034685;28;45229;-69
2023/09/18 05:07:43;;;;;;;;;2.00;2.00;;;;;20.78;71.23;100163.31;5024830;28;45556;-69
2023/09/18 05:10:09;;;;;;;;;1.67;1.67;;;;;20.85;71.45;100173.00;5017123;28;45242;-70
2023/09/18 05:12:34;;;;;;;;;4.00;3.00;;;;;20.84;71.25;100174.06;5026081;28;45574;-68
2023/09/18 05:15:00;;;;;;;;;3.00;3.00;;;;;20.53;71.50;100128.25;5023962;28;45597;-68
2023/09/18 05:17:44;;;;;;;;;3.00;3.00;;;;;20.89;71.20;100168.78;5030787;28;46525;-68
2023/09/18 05:20:15;;;;;;;;;2.00;2.00;;;;;20.88;71.15;100169.03;5036136;28;45573;-68
2023/09/18 05:22:42;;;;;;;;;3.00;3.00;;;;;20.83;71.22;100164.31;5030195;28;45510;-68
2023/09/18 05:25:09;;;;;;;;;3.50;3.50;;;;;20.89;71.86;100176.06;5039764;28;45481;-68
2023/09/18 05:27:35;;;;;;;;;4.00;4.00;;;;;20.94;70.85;100173.50;5033229;28;46599;-68
2023/09/18 05:30:01;;;;;;;;;5.33;3.67;;;;;20.90;70.90;100166.91;5035829;28;45206;-69
2023/09/18 05:32:26;;;;;;;;;2.75;2.00;;;;;20.89;70.83;100160.69;5023378;28;45302;-68
2023/09/18 05:34:52;;;;;;;;;3.25;3.25;;;;;21.02;70.95;100180.47;5009070;28;45563;-69
2023/09/18 05:37:17;;;;;;;;;3.00;3.00;;;;;21.05;70.33;100180.06;5032033;28;46398;-68
2023/09/18 05:39:42;;;;;;;;;3.33;2.00;;;;;21.10;70.43;100191.00;5019525;28;45484;-67
2023/09/18 05:42:07;;;;;;;;;3.00;3.00;;;;;21.13;70.30;100182.44;5023490;28;51708;-69
2023/09/18 05:44:33;;;;;;;;;2.50;1.00;;;;;21.16;70.30;100181.97;5027736;28;45452;-68
2023/09/18 05:46:59;;;;;;;;;3.25;3.25;;;;;21.18;70.28;100185.28;5027115;28;46837;-69
2023/09/18 05:49:24;;;;;;;;;5.75;3.00;;;;;21.20;70.19;100175.88;5036843;28;45586;-70
2023/09/18 05:51:49;;;;;;;;;3.50;3.25;;;;;21.18;70.12;100174.47;5030301;28;45717;-73
2023/09/18 05:54:15;;;;;;;;;4.00;4.00;;;;;21.16;70.09;100173.88;5023749;28;45218;-69
2023/09/18 05:56:40;;;;;;;;;7.75;5.50;;;;;21.10;69.95;100172.09;5029697;28;66904;-69
2023/09/18 05:59:05;;;;;;;;;4.00;4.00;;;;;20.61;69.82;100087.44;5010370;28;46331;-68
2023/09/18 06:01:32;;;;;;;;;5.50;4.50;;;;;21.25;69.86;100196.88;5019156;28;45389;-69
2023/09/18 06:03:58;;;;;;;;;5.25;5.25;;;;;21.25;69.77;100191.47;5032529;28;45550;-67
2023/09/18 06:06:24;;;;;;;;;4.50;4.50;;;;;21.27;69.60;100199.38;5026115;28;46643;-69
2023/09/18 06:08:50;;;;;;;;;6.00;4.33;;;;;21.27;69.67;100194.78;5030276;28;45423;-68
2023/09/18 06:11:15;;;;;;;;;6.67;6.33;;;;;21.16;69.88;100181.97;5020683;28;45771;-71
2023/09/18 06:13:40;;;;;;;;;6.67;5.00;;;;;21.31;69.41;100206.78;5018663;28;45435;-68
2023/09/18 06:16:07;;;;;;;;;2.25;2.25;;;;;21.28;69.75;100206.41;5018264;28;59043;-67
2023/09/18 06:18:33;;;;;;;;;6.75;5.00;;;;;21.30;69.59;100205.13;5026611;28;45566;-69
2023/09/18 06:20:58;;;;;;;;;3.75;3.75;;;;;21.22;69.37;100191.88;5022733;28;45654;-71
2023/09/18 06:23:24;;;;;;;;;4.50;4.25;;;;;21.30;69.60;100205.13;5018576;28;49033;-68
2023/09/18 06:25:55;;;;;;;;;8.33;5.00;;;;;21.36;69.74;100220.44;5024063;28;46292;-68
2023/09/18 06:28:21;;;;;;;;;7.50;4.00;;;;;21.32;69.22;100219.25;5028072;28;45505;-68
2023/09/18 06:30:46;;;;;;;;;4.67;4.00;;;;;20.88;69.65;100172.56;5025930;28;62766;-69
2023/09/18 06:33:12;;;;;;;;;6.75;5.25;;;;;21.21;69.88;100238.91;5025970;28;45587;-68
2023/09/18 06:35:38;;;;;;;;;5.00;5.00;;;;;21.15;69.77;100218.19;5021598;28;47174;-69
2023/09/18 06:38:05;;;;;;;;;5.00;5.00;;;;;21.13;69.71;100209.47;5037913;28;45533;-68
2023/09/18 06:40:30;;;;;;;;;4.25;4.25;;;;;21.18;69.78;100217.72;5032884;28;45464;-77
2023/09/18 06:43:00;;;;;;;;;5.67;4.33;;;;;21.17;69.99;100216.06;5029219;28;45537;-69
2023/09/18 06:45:25;;;;;;;;;7.67;6.00;;;;;21.24;69.71;100206.06;5020279;28;46169;-75
2023/09/18 06:47:50;;;;;;;;;6.33;5.00;;;;;21.23;69.46;100198.97;5022925;28;45299;-70
2023/09/18 06:50:18;;;;;;;;;8.00;6.00;;;;;21.30;69.32;100220.53;5021501;28;45585;-69
2023/09/18 06:52:44;;;;;;;;;9.00;7.00;;;;;21.01;69.46;100165.31;5018604;28;45562;-69
2023/09/18 06:55:09;;;;;;;;;6.00;4.67;;;;;21.33;69.38;100212.78;5007679;28;47318;-70
2023/09/18 06:57:34;;;;;;;;;7.67;7.67;;;;;21.04;69.24;100151.38;5016389;28;45548;-69
2023/09/18 07:00:00;;;;;;;;;6.33;5.33;;;;;21.50;69.02;100215.69;5023028;28;45523;-69
2023/09/18 07:02:25;;;;;;;;;6.00;6.00;;;;;21.51;68.96;100196.53;5033099;28;45510;-69
2023/09/18 07:04:51;;;;;;;;;9.00;8.00;;;;;21.74;68.78;100219.31;5034129;28;45674;-67
2023/09/18 07:07:17;;;;;;;;;6.67;6.67;;;;;21.80;68.59;100202.16;5018214;28;45389;-68
2023/09/18 07:09:42;;;;;;;;;8.33;7.33;;;;;22.02;68.00;100224.94;5024749;28;45606;-68
2023/09/18 07:12:11;;;;;;;;;5.67;5.33;;;;;22.07;67.49;100216.16;5023607;28;45509;-68
2023/09/18 07:14:37;;;;;;;;;10.00;9.67;;;;;21.81;67.08;100184.88;5024770;28;47559;-67
2023/09/18 07:17:03;;;;;;;;;7.00;7.00;;;;;22.11;67.07;100218.16;5024636;28;45347;-68
2023/09/18 07:19:29;;;;;;;;;10.00;9.33;;;;;22.21;67.23;100246.56;5033189;28;45487;-68
2023/09/18 07:21:54;;;;;;;;;8.67;7.00;;;;;22.28;66.71;100240.00;5024634;28;45537;-68
2023/09/18 07:24:20;;;;;;;;;10.33;8.33;;;;;22.26;66.69;100236.69;5025949;28;52906;-67
2023/09/18 07:26:47;;;;;;;;;8.00;5.67;;;;;22.20;65.96;100236.78;5026383;28;45294;-67
2023/09/18 07:29:14;;;;;;;;;5.00;5.00;;;;;22.16;66.54;100239.94;5022519;28;45527;-67
2023/09/18 07:31:40;;;;;;;;;11.00;9.00;;;;;22.20;66.21;100236.78;5021110;28;45653;-73
2023/09/18 07:34:06;;;;;;;;;6.00;6.00;;;;;22.07;66.08;100227.00;5036982;28;45826;-67
2023/09/18 07:36:31;;;;;;;;;7.00;6.00;;;;;22.21;65.89;100262.78;5038359;28;45325;-68
2023/09/18 07:38:57;;;;;;;;;10.33;7.33;;;;;21.90;66.09;100205.16;5017300;28;45310;-68
2023/09/18 07:41:22;;;;;;;;;6.33;6.33;;;;;22.17;66.10;100246.19;5017712;28;45298;-68
2023/09/18 07:43:48;;;;;;;;;9.67;8.67;;;;;21.99;65.87;100202.91;5025859;28;46453;-69
2023/09/18 07:46:13;;;;;;;;;9.00;8.00;;;;;22.35;65.97;100245.28;5032878;28;45347;-68
2023/09/18 07:48:39;;;;;;;;;2.00;2.00;;;;;22.43;65.92;100253.91;5036143;28;45357;-68
2023/09/18 07:51:04;;;;;;;;;8.33;6.67;;;;;22.50;65.27;100242.97;5018498;28;45444;-69
2023/09/18 07:53:29;;;;;;;;;6.67;6.67;;;;;22.65;64.76;100256.06;5037917;28;45535;-68
2023/09/18 07:55:58;;;;;;;;;9.67;7.33;;;;;22.71;64.11;100244.25;5025173;28;45926;-67
2023/09/18 07:58:27;;;;;;;;;7.00;7.00;;;;;22.96;63.86;100252.16;5038558;28;45394;-68
2023/09/18 08:00:53;;;;;;;;;7.33;7.00;;;;;23.08;63.46;100242.16;5009292;28;45578;-67
2023/09/18 08:03:19;;;;;;;;;7.67;6.33;;;;;23.21;62.39;100249.19;5034645;28;46611;-70
2023/09/18 08:05:45;;;;;;;;;5.00;5.00;;;;;23.37;62.21;100262.84;5027282;28;45302;-66
2023/09/18 08:08:10;;;;;;;;;5.00;5.00;;;;;23.42;61.90;100245.81;5029482;28;45256;-67
2023/09/18 08:10:40;;;;;;;;;6.25;5.25;;;;;23.08;61.57;100196.06;5035576;28;45511;-67
2023/09/18 08:13:06;;;;;;;;;6.25;5.00;;;;;23.52;61.86;100256.06;5032480;28;46252;-67
2023/09/18 08:15:31;;;;;;;;;5.25;5.25;;;;;23.76;60.71;100251.41;5021153;28;45468;-77
2023/09/18 08:17:57;;;;;;;;;5.75;5.75;;;;;23.90;58.91;100215.59;5034953;28;45560;-79
2023/09/18 08:20:22;;;;;;;;;6.00;4.25;;;;;24.37;58.12;100247.91;5032107;28;45558;-68
2023/09/18 08:22:48;;;;;;;;;4.50;4.25;;;;;24.51;57.50;100254.69;5023063;28;47432;-68
2023/09/18 08:25:13;;;;;;;;;7.00;6.25;;;;;24.74;56.98;100241.97;5029451;28;45555;-68
2023/09/18 08:27:41;;;;;;;;;6.75;6.75;;;;;25.00;56.10;100252.16;5026519;28;45443;-68
2023/09/18 08:30:09;;;;;;;;;5.75;5.00;;;;;25.27;54.61;100240.56;5030469;28;45625;-75
2023/09/18 08:32:35;;;;;;;;;6.00;5.75;;;;;25.28;54.88;100187.78;5009108;28;47924;-67
2023/09/18 08:35:01;;;;;;;;;6.67;6.67;;;;;25.91;53.36;100244.31;5020106;28;45472;-68
2023/09/18 08:37:30;;;;;;;;;5.75;5.00;;;;;26.44;53.52;100250.84;5023936;28;45587;-68
2023/09/18 08:39:55;;;;;;;;;6.25;4.25;;;;;26.86;50.73;100231.75;5019922;28;45500;-68
2023/09/18 08:42:21;;;;;;;;;6.00;5.00;;;;;27.44;50.86;100240.81;5016725;28;45929;-66
2023/09/18 08:44:50;;;;;;;;;5.00;5.00;;;;;28.12;48.71;100249.72;5028014;28;45551;-67
2023/09/18 08:47:18;;;;;;;;;4.00;4.00;;;;;28.59;47.55;100251.38;5024259;28;45522;-69
2023/09/18 08:49:46;;;;;;;;;10.75;8.75;;;;;28.69;46.49;100245.91;5026775;28;45449;-68
2023/09/18 08:52:14;;;;;;;;;7.25;5.75;;;;;29.07;45.42;100249.16;5016282;28;47834;-68
2023/09/18 08:54:40;;;;;;;;;5.50;5.50;;;;;29.31;44.70;100265.75;5025474;28;45525;-68
2023/09/18 08:57:07;;;;;;;;;5.00;5.00;;;;;29.43;44.76;100254.47;5015068;28;46094;-68
2023/09/18 08:59:35;;;;;;;;;4.75;4.75;;;;;29.47;44.26;100255.59;5026778;28;45421;-68
2023/09/18 09:02:01;;;;;;;;;4.50;4.00;;;;;29.49;44.05;100256.13;5025935;28;47840;-67
2023/09/18 09:04:27;;;;;;;;;4.00;3.00;;;;;29.25;44.12;100256.75;5033997;28;45416;-68
2023/09/18 09:06:52;;;;;;;;;7.67;7.00;;;;;28.90;44.09;100213.06;5018927;28;46833;-69
2023/09/18 09:09:19;;;;;;;;;5.67;5.67;;;;;29.12;44.20;100251.88;5032379;28;45517;-69
2023/09/18 09:11:50;;;;;;;;;7.50;5.00;;;;;29.13;44.48;100241.72;5023467;28;46839;-69
2023/09/18 09:14:17;;;;;;;;;4.67;4.67;;;;;28.89;44.21;100242.34;5016470;28;45644;-68
2023/09/18 09:16:49;;;;;;;;;5.67;5.67;;;;;29.15;45.35;100254.03;5017353;28;46326;-67
2023/09/18 09:19:20;;;;;;;;;2.67;2.33;;;;;29.60;43.98;100239.34;5022565;28;45514;-68
2023/09/18 09:21:46;;;;;;;;;7.67;6.00;;;;;29.36;43.68;100131.56;5015557;28;46654;-68
2023/09/18 09:24:13;;;;;;;;;6.00;4.00;;;;;30.53;42.20;100243.91;5026764;28;45352;-68
2023/09/18 09:26:40;;;;;;;;;5.00;5.00;;;;;30.83;41.50;100242.00;5024384;28;45405;-69
2023/09/18 09:29:21;;;;;;;;;3.50;3.00;;;;;31.04;40.63;100259.91;5028994;28;45435;-69
2023/09/18 09:31:47;;;;;;;;;3.25;3.25;;;;;30.72;39.93;100224.84;5022719;28;47550;-69
2023/09/18 09:34:23;;;;;;;;;4.50;4.50;;;;;30.77;40.40;100260.44;5035677;28;45524;-68
2023/09/18 09:36:56;;;;;;;;;3.50;3.50;;;;;30.95;40.12;100258.91;5019114;28;45395;-68
2023/09/18 09:39:24;;;;;;;;;3.75;3.75;;;;;31.15;38.90;100246.88;5035052;28;45513;-68
2023/09/18 09:41:51;;;;;;;;;4.75;4.25;;;;;31.42;39.33;100249.84;5022978;28;46683;-68
2023/09/18 09:44:16;;;;;;;;;3.75;3.25;;;;;31.78;38.55;100246.66;5030021;28;45470;-68
2023/09/18 09:46:49;;;;;;;;;4.25;4.25;;;;;31.90;37.14;100255.28;5027350;28;45409;-68
2023/09/18 09:49:17;;;;;;;;;5.00;4.00;;;;;31.78;37.47;100258.47;5035067;28;45472;-69
2023/09/18 09:51:43;;;;;;;;;3.25;3.25;;;;;31.91;38.21;100256.09;5014610;28;45729;-67
2023/09/18 09:54:11;;;;;;;;;5.00;3.75;;;;;31.90;38.22;100270.97;5034373;28;45778;-68
2023/09/18 09:56:46;;;;;;;;;4.25;3.25;;;;;31.80;37.31;100262.84;5015424;28;45281;-69
2023/09/18 09:59:14;;;;;;;;;4.00;4.00;;;;;31.56;37.37;100263.69;5030196;28;45613;-68
2023/09/18 10:01:44;;;;;;;;;3.25;3.25;;;;;31.44;38.16;100269.63;5019640;28;45830;-68
2023/09/18 10:04:12;;;;;;;;;4.00;3.00;;;;;31.28;38.75;100264.63;5043401;28;45601;-69
2023/09/18 10:06:43;;;;;;;;;5.50;5.50;;;;;31.14;38.94;100254.28;5019781;28;46172;-69
2023/09/18 10:09:10;;;;;;;;;4.00;4.00;;;;;30.86;39.06;100275.19;5047582;28;45553;-69
2023/09/18 10:11:40;;;;;;;;;5.75;3.75;;;;;30.34;39.52;100275.09;5030531;28;47018;-69
2023/09/18 10:14:31;;;;;;;;;2.50;2.50;;;;;29.89;40.65;100272.34;5036129;28;45563;-69
2023/09/18 10:16:59;;;;;;;;;3.50;3.50;;;;;29.55;41.32;100261.31;5021222;28;45388;-69
2023/09/18 10:19:39;;;;;;;;;4.25;4.25;;;;;29.33;41.59;100264.38;5035115;28;45435;-68
2023/09/18 10:22:46;;;;;;;;;4.00;4.00;;;;;29.02;41.79;100262.81;5017176;28;46768;-69
2023/09/18 10:25:19;;;;;;;;;3.50;3.50;;;;;28.58;42.84;100244.28;4955995;28;45386;-77
2023/09/18 10:27:49;;;;;;;;;2.50;2.50;;;;;27.84;43.73;100203.78;5015056;28;45410;-78
2023/09/18 10:30:18;;;;;;;;;5.25;3.50;;;;;27.79;43.71;100261.94;5030591;28;45435;-68
2023/09/18 10:32:48;;;;;;;;;1.75;1.75;;;;;27.52;44.38;100258.56;5017619;28;46410;-68
2023/09/18 10:35:14;;;;;;;;;5.00;4.50;;;;;27.14;45.25;100251.56;5037245;28;45582;-68
2023/09/18 10:37:45;;;;;;;;;2.00;2.00;;;;;26.91;45.65;100261.78;5018027;28;45376;-70
2023/09/18 10:40:10;;;;;;;;;2.25;2.00;;;;;26.65;46.26;100271.72;5029680;28;45587;-69
2023/09/18 10:42:38;;;;;;;;;3.25;3.25;;;;;26.50;47.32;100263.41;5021044;28;47667;-69
2023/09/18 10:45:06;;;;;;;;;2.00;2.00;;;;;26.36;47.30;100282.09;5043730;28;45470;-68
2023/09/18 10:47:34;;;;;;;;;5.00;5.00;;;;;26.36;47.42;100271.19;5009048;28;45510;-70
2023/09/18 10:49:59;;;;;;;;;3.75;3.75;;;;;26.30;47.58;100265.94;5037594;28;45492;-69
2023/09/18 10:52:25;;;;;;;;;2.75;2.75;;;;;26.42;47.72;100271.22;5026388;28;46620;-70
2023/09/18 10:54:51;;;;;;;;;4.50;3.50;;;;;26.30;47.75;100250.41;5029303;28;45564;-70
2023/09/18 10:57:16;;;;;;;;;3.50;3.25;;;;;26.34;47.33;100267.06;5011773;28;45421;-68
2023/09/18 10:59:45;;;;;;;;;4.00;4.00;;;;;26.44;46.94;100271.81;5030810;28;45262;-68
2023/09/18 11:02:14;;;;;;;;;3.00;3.00;;;;;26.29;47.09;100267.03;5025081;28;45560;-68
2023/09/18 11:04:42;;;;;;;;;3.25;3.25;;;;;26.20;47.20;100277.56;5020837;28;46482;-68
2023/09/18 11:07:09;;;;;;;;;3.50;3.50;;;;;25.92;47.27;100253.31;5026187;28;45529;-68
2023/09/18 11:09:43;;;;;;;;;3.00;3.00;;;;;25.97;47.30;100262.34;5028265;28;45665;-68
2023/09/18 11:12:11;;;;;;;;;3.75;3.75;;;;;25.96;47.57;100276.22;5017889;28;45948;-69
2023/09/18 11:14:45;;;;;;;;;4.00;3.00;;;;;25.91;47.82;100281.63;5031172;28;45554;-70
2023/09/18 11:17:33;;;;;;;;;6.50;4.75;;;;;25.88;47.93;100274.78;5022098;28;45476;-68
2023/09/18 11:20:18;;;;;;;;;4.00;4.00;;;;;25.72;47.63;100268.34;5034676;28;45277;-68
2023/09/18 11:23:12;;;;;;;;;5.00;5.00;;;;;25.71;48.31;100274.88;5034301;28;46240;-69